Time;durP1;ratioP1;P1;durP2;ratioP2;P2;SDS_P1;SDS_P2;PMS_P1;PMS_P2;Temp;Humidity;BMP_temperature;BMP_pressure;BME280_temperature;BME280_humidity;BME280_pressure;Samples;Min_cycle;Max_cycle;Signal;HPM_P1;HPM_P2
2023/01/09 00:01:51;;;;;;;2.90;0.60;;;6.00;99.90;;;;;;5013709;28;20937;-90
2023/01/09 00:04:16;;;;;;;0.90;0.63;;;5.90;99.90;;;;;;5012933;28;20184;-95
2023/01/09 00:06:42;;;;;;;2.50;0.70;;;5.90;99.90;;;;;;5013491;28;20419;-93
2023/01/09 00:09:09;;;;;;;4.40;0.67;;;5.90;99.90;;;;;;4984370;28;20263;-92
2023/01/09 00:11:35;;;;;;;0.80;0.33;;;5.90;99.90;;;;;;5012302;28;20257;-88
2023/01/09 00:14:00;;;;;;;1.20;0.50;;;6.00;99.90;;;;;;5015735;28;20458;-92
2023/01/09 00:16:26;;;;;;;1.17;0.63;;;6.00;99.90;;;;;;5016591;28;20231;-90
2023/01/09 00:18:52;;;;;;;0.90;0.67;;;5.90;99.90;;;;;;5015490;28;20635;-90
2023/01/09 00:21:18;;;;;;;2.47;1.07;;;5.90;99.90;;;;;;5015651;28;20273;-90
2023/01/09 00:24:31;;;;;;;2.93;0.97;;;6.00;99.90;;;;;;5016739;28;20823;-94
2023/01/09 00:26:57;;;;;;;1.13;0.40;;;6.00;99.90;;;;;;5014458;28;20442;-87
2023/01/09 00:29:22;;;;;;;0.70;0.40;;;6.00;99.90;;;;;;5016727;28;20422;-95
2023/01/09 00:31:48;;;;;;;3.90;0.60;;;6.00;99.90;;;;;;5015036;28;20208;-88
2023/01/09 00:34:13;;;;;;;3.27;0.70;;;6.00;99.90;;;;;;5016535;28;20213;-93
2023/01/09 00:36:39;;;;;;;1.10;0.77;;;6.10;99.90;;;;;;5016967;28;20176;-94
2023/01/09 00:39:05;;;;;;;2.00;0.70;;;6.00;99.90;;;;;;5016699;28;20249;-94
2023/01/09 00:41:33;;;;;;;1.60;0.73;;;6.10;99.90;;;;;;5026758;28;20179;-87
2023/01/09 00:44:05;;;;;;;1.90;0.73;;;6.10;99.90;;;;;;5018943;28;20436;-93
2023/01/09 00:46:35;;;;;;;1.80;0.77;;;6.10;99.90;;;;;;5015137;28;20799;-88
2023/01/09 00:49:03;;;;;;;2.13;1.10;;;6.10;99.90;;;;;;5015320;28;20429;-92
2023/01/09 00:51:28;;;;;;;2.53;0.83;;;6.10;99.90;;;;;;5016333;28;20911;-90
2023/01/09 00:53:54;;;;;;;1.40;0.90;;;6.10;99.90;;;;;;5016115;28;20477;-91
2023/01/09 00:56:21;;;;;;;4.40;0.93;;;6.10;99.90;;;;;;5015039;28;20624;-94
2023/01/09 00:58:47;;;;;;;2.50;1.70;;;6.10;99.90;;;;;;5015384;28;20194;-87
2023/01/09 01:01:13;;;;;;;0.83;0.40;;;6.10;99.90;;;;;;5015864;28;20405;-93
2023/01/09 01:03:41;;;;;;;2.47;0.90;;;6.10;99.90;;;;;;5015293;28;20412;-88
2023/01/09 01:08:51;;;;;;;1.93;0.90;;;6.00;99.90;;;;;;5016740;28;20918;-94
2023/01/09 01:11:16;;;;;;;3.13;1.10;;;6.00;99.90;;;;;;5015350;28;20409;-94
2023/01/09 01:13:42;;;;;;;2.13;1.37;;;6.00;99.90;;;;;;5015014;28;20689;-94
2023/01/09 01:16:10;;;;;;;5.10;0.93;;;6.00;99.90;;;;;;5015659;28;20386;-95
2023/01/09 01:18:36;;;;;;;2.77;0.83;;;5.90;99.90;;;;;;5015098;28;20262;-94
2023/01/09 01:21:10;;;;;;;2.33;0.93;;;6.00;99.90;;;;;;5014999;28;20424;-91
2023/01/09 01:23:36;;;;;;;2.70;0.87;;;6.00;99.90;;;;;;5014803;28;20488;-94
2023/01/09 01:26:08;;;;;;;2.40;0.97;;;6.00;99.90;;;;;;5015257;28;20436;-93
2023/01/09 01:28:36;;;;;;;1.20;0.70;;;6.00;99.90;;;;;;5014878;28;20428;-92
2023/01/09 01:31:03;;;;;;;2.10;1.27;;;5.90;99.90;;;;;;5014454;28;20503;-93
2023/01/09 01:33:29;;;;;;;2.13;0.97;;;5.90;99.90;;;;;;5014553;28;20468;-93
2023/01/09 01:36:06;;;;;;;1.70;0.93;;;5.90;99.90;;;;;;5014192;28;20429;-91
2023/01/09 01:38:36;;;;;;;1.03;0.73;;;5.90;99.90;;;;;;5015383;28;20410;-94
2023/01/09 01:41:03;;;;;;;1.40;0.83;;;5.90;99.90;;;;;;5009231;28;20427;-91
2023/01/09 01:43:51;;;;;;;2.97;1.10;;;5.90;99.90;;;;;;4983539;28;20479;-89
2023/01/09 01:46:18;;;;;;;3.10;0.83;;;5.90;99.90;;;;;;5009906;28;20420;-90
2023/01/09 01:48:44;;;;;;;1.60;1.37;;;6.00;99.90;;;;;;5015289;28;20460;-93
2023/01/09 01:51:15;;;;;;;1.33;0.50;;;6.10;99.90;;;;;;5014096;28;20463;-88
2023/01/09 01:53:49;;;;;;;3.20;0.97;;;6.20;99.90;;;;;;5015210;28;20450;-88
2023/01/09 01:56:40;;;;;;;1.90;0.50;;;6.20;99.90;;;;;;5014388;28;20437;-88
2023/01/09 01:59:18;;;;;;;1.63;0.60;;;6.20;99.90;;;;;;5009450;28;20413;-88
2023/01/09 02:01:48;;;;;;;2.90;1.10;;;6.30;99.90;;;;;;5013800;28;20425;-93
2023/01/09 02:04:13;;;;;;;2.17;0.83;;;6.30;99.90;;;;;;5015222;28;20439;-94
2023/01/09 02:06:40;;;;;;;1.80;0.60;;;6.40;99.90;;;;;;5014416;28;20513;-89
2023/01/09 02:09:06;;;;;;;1.50;1.00;;;6.30;99.90;;;;;;5022045;28;20177;-88
2023/01/09 02:11:32;;;;;;;2.70;1.00;;;6.30;99.90;;;;;;5021624;28;20782;-91
2023/01/09 02:13:59;;;;;;;2.17;1.10;;;6.10;99.90;;;;;;5014558;28;20470;-92
2023/01/09 02:16:36;;;;;;;1.67;0.77;;;5.90;99.90;;;;;;5014649;28;20461;-93
2023/01/09 02:19:40;;;;;;;2.27;1.20;;;5.90;99.90;;;;;;5013533;28;20454;-91
2023/01/09 02:22:34;;;;;;;1.93;1.07;;;5.90;99.90;;;;;;5014867;28;20904;-91
2023/01/09 02:25:25;;;;;;;1.47;1.23;;;5.90;99.90;;;;;;5014613;28;20429;-92
2023/01/09 02:28:09;;;;;;;3.10;1.30;;;6.00;99.90;;;;;;5002494;28;20928;-89
2023/01/09 02:30:44;;;;;;;1.90;0.97;;;5.90;99.90;;;;;;5012904;28;20846;-92
2023/01/09 02:33:28;;;;;;;1.60;1.03;;;6.00;99.90;;;;;;5013434;28;20938;-91
2023/01/09 02:36:23;;;;;;;1.90;1.00;;;6.00;99.90;;;;;;5013305;28;20442;-91
2023/01/09 02:39:06;;;;;;;2.30;0.70;;;6.00;99.90;;;;;;5008892;28;20487;-91
2023/01/09 02:41:50;;;;;;;2.40;1.30;;;6.00;99.90;;;;;;5013184;28;20492;-92
2023/01/09 02:44:21;;;;;;;3.80;1.27;;;6.10;99.90;;;;;;5013093;28;20504;-88
2023/01/09 02:46:46;;;;;;;5.57;1.43;;;6.10;99.90;;;;;;5012950;28;20519;-92
2023/01/09 02:49:17;;;;;;;4.03;1.30;;;6.10;99.90;;;;;;5013019;28;20422;-88
2023/01/09 02:51:58;;;;;;;3.40;1.67;;;6.20;99.90;;;;;;5013349;28;20233;-91
2023/01/09 02:55:02;;;;;;;4.67;1.30;;;6.20;99.90;;;;;;5012901;28;20479;-87
2023/01/09 02:57:40;;;;;;;0.90;0.60;;;6.20;99.90;;;;;;5013344;28;20909;-87
2023/01/09 03:00:32;;;;;;;4.10;1.47;;;6.20;99.90;;;;;;5012988;28;20432;-87
2023/01/09 03:03:09;;;;;;;3.10;1.33;;;6.30;99.90;;;;;;5013201;28;20420;-93
2023/01/09 03:05:57;;;;;;;2.40;1.40;;;6.20;99.90;;;;;;5013110;28;20428;-90
2023/01/09 03:08:33;;;;;;;1.60;1.20;;;6.20;99.90;;;;;;5013232;28;20428;-92
2023/01/09 03:11:03;;;;;;;1.93;1.63;;;6.20;99.90;;;;;;5013044;28;20424;-89
2023/01/09 03:13:51;;;;;;;1.47;1.00;;;6.20;99.90;;;;;;4976151;28;20470;-92
2023/01/09 03:16:22;;;;;;;2.60;1.17;;;6.20;99.90;;;;;;5012755;28;20488;-91
2023/01/09 03:18:49;;;;;;;3.10;1.33;;;6.20;99.90;;;;;;5014100;28;20565;-89
2023/01/09 03:21:15;;;;;;;3.30;1.90;;;6.30;99.90;;;;;;5012716;28;20975;-89
2023/01/09 03:23:48;;;;;;;6.93;1.00;;;6.20;99.90;;;;;;5012935;28;20517;-90
2023/01/09 03:26:13;;;;;;;2.97;1.23;;;6.20;99.90;;;;;;5013145;28;20498;-94
2023/01/09 03:28:39;;;;;;;2.00;0.67;;;6.20;99.90;;;;;;5012570;28;20927;-90
2023/01/09 03:31:05;;;;;;;1.90;1.13;;;6.20;99.90;;;;;;5012591;28;20207;-91
2023/01/09 03:33:30;;;;;;;1.87;1.00;;;6.20;99.90;;;;;;5013918;28;20215;-91
2023/01/09 03:35:56;;;;;;;1.87;1.10;;;6.30;99.90;;;;;;5015894;28;20555;-93
2023/01/09 03:38:21;;;;;;;3.60;1.30;;;6.30;99.90;;;;;;5023237;28;20171;-88
2023/01/09 03:40:47;;;;;;;2.00;1.20;;;6.30;99.90;;;;;;5014206;28;20195;-89
2023/01/09 03:43:12;;;;;;;2.13;1.00;;;6.40;99.90;;;;;;5016166;28;20202;-91
2023/01/09 03:45:38;;;;;;;1.80;1.07;;;6.50;99.90;;;;;;5017489;28;20159;-91
2023/01/09 03:48:04;;;;;;;2.57;1.13;;;6.50;99.90;;;;;;5017920;28;20208;-90
2023/01/09 03:50:29;;;;;;;1.50;0.80;;;6.60;99.90;;;;;;5016797;28;20180;-87
2023/01/09 03:52:55;;;;;;;1.67;1.27;;;6.70;99.90;;;;;;5016579;28;20257;-90
2023/01/09 03:55:20;;;;;;;0.93;0.40;;;6.70;99.90;;;;;;5016387;28;20345;-90
2023/01/09 03:57:46;;;;;;;2.03;0.73;;;6.70;99.90;;;;;;5016235;28;20624;-90
2023/01/09 04:00:12;;;;;;;1.73;0.90;;;6.70;99.90;;;;;;5015873;28;20186;-89
2023/01/09 04:02:37;;;;;;;1.33;0.60;;;6.70;99.90;;;;;;5016263;28;20178;-89
2023/01/09 04:05:03;;;;;;;2.30;1.00;;;6.80;99.90;;;;;;5015530;28;20956;-88
2023/01/09 04:07:28;;;;;;;1.53;0.53;;;6.70;99.90;;;;;;5015342;28;20178;-92
2023/01/09 04:09:54;;;;;;;4.00;0.90;;;6.70;99.90;;;;;;5015628;28;20634;-89
2023/01/09 04:12:19;;;;;;;1.60;0.60;;;6.70;99.90;;;;;;5016097;28;20171;-90
2023/01/09 04:14:47;;;;;;;1.53;0.60;;;6.70;99.90;;;;;;4975588;28;20221;-89
2023/01/09 04:17:15;;;;;;;1.97;0.90;;;6.60;99.90;;;;;;5015266;28;20195;-91
2023/01/09 04:19:41;;;;;;;0.90;0.70;;;6.70;99.90;;;;;;5017345;28;20926;-89
2023/01/09 04:22:06;;;;;;;1.00;0.40;;;6.60;99.90;;;;;;5017087;28;20427;-93
2023/01/09 04:24:32;;;;;;;1.57;1.00;;;6.60;99.90;;;;;;5016099;28;20628;-92
2023/01/09 04:26:57;;;;;;;1.00;0.50;;;6.60;99.90;;;;;;5015946;28;20621;-88
2023/01/09 04:29:23;;;;;;;1.50;0.60;;;6.60;99.90;;;;;;5017203;28;20184;-91
2023/01/09 04:31:51;;;;;;;1.57;0.60;;;6.60;99.90;;;;;;5015927;28;20648;-93
2023/01/09 04:34:17;;;;;;;2.13;0.70;;;6.60;99.90;;;;;;5015882;28;20220;-92
2023/01/09 04:36:42;;;;;;;1.47;0.80;;;6.60;99.90;;;;;;5016764;28;20414;-91
2023/01/09 04:39:08;;;;;;;1.00;0.40;;;6.60;99.90;;;;;;5017103;28;20183;-91
2023/01/09 04:41:49;;;;;;;4.30;0.60;;;6.60;99.90;;;;;;5015650;28;20185;-90
2023/01/09 04:44:25;;;;;;;4.87;0.80;;;6.60;99.90;;;;;;5016611;28;20258;-90
2023/01/09 04:46:51;;;;;;;4.13;1.43;;;6.60;99.90;;;;;;5016480;28;20406;-92
2023/01/09 04:49:16;;;;;;;1.43;0.60;;;6.60;99.90;;;;;;5015419;28;20914;-88
2023/01/09 04:51:42;;;;;;;1.03;0.77;;;6.60;99.90;;;;;;5015591;28;20781;-92
2023/01/09 04:54:10;;;;;;;2.57;0.60;;;6.50;99.90;;;;;;5014532;28;20198;-89
2023/01/09 04:56:36;;;;;;;0.80;0.50;;;6.60;99.90;;;;;;5016378;28;20274;-92
2023/01/09 04:59:03;;;;;;;2.10;0.70;;;6.60;99.90;;;;;;5015384;28;20407;-88
2023/01/09 05:01:29;;;;;;;1.13;0.70;;;6.60;99.90;;;;;;5015020;28;20422;-93
2023/01/09 05:03:54;;;;;;;0.80;0.67;;;6.60;99.90;;;;;;5017019;28;20410;-88
2023/01/09 05:06:20;;;;;;;2.17;0.63;;;6.60;99.90;;;;;;5030953;28;20211;-88
2023/01/09 05:08:46;;;;;;;1.90;0.53;;;6.60;99.90;;;;;;5017911;28;20264;-90
2023/01/09 05:11:12;;;;;;;1.70;0.43;;;6.60;99.90;;;;;;5015066;28;20237;-95
2023/01/09 05:13:37;;;;;;;3.13;0.73;;;6.60;99.90;;;;;;5016183;28;20558;-95
2023/01/09 05:16:06;;;;;;;2.67;0.67;;;6.60;99.90;;;;;;5014349;28;20737;-93
2023/01/09 05:18:31;;;;;;;1.63;0.43;;;6.60;99.90;;;;;;5015062;28;20194;-88
2023/01/09 05:20:57;;;;;;;1.43;0.40;;;6.60;99.90;;;;;;5015978;28;20970;-94
2023/01/09 05:23:23;;;;;;;3.00;0.30;;;6.70;99.90;;;;;;5016022;28;20178;-93
2023/01/09 05:25:48;;;;;;;1.07;0.40;;;6.60;99.90;;;;;;5015843;28;20698;-90
2023/01/09 05:28:17;;;;;;;1.90;0.53;;;6.70;99.90;;;;;;5014630;28;20456;-92
2023/01/09 05:30:42;;;;;;;1.33;0.40;;;6.70;99.90;;;;;;5014535;28;20182;-94
2023/01/09 05:33:08;;;;;;;1.93;0.53;;;6.70;99.90;;;;;;5014622;28;20436;-93
2023/01/09 05:35:33;;;;;;;0.87;0.60;;;6.70;99.90;;;;;;5014634;28;20286;-90
2023/01/09 05:37:59;;;;;;;1.83;0.63;;;6.70;99.90;;;;;;5014454;28;20186;-92
2023/01/09 05:40:27;;;;;;;3.10;0.77;;;6.70;99.90;;;;;;5014482;28;20273;-91
2023/01/09 05:42:52;;;;;;;1.60;0.40;;;6.70;99.90;;;;;;5014619;28;20708;-91
2023/01/09 05:45:18;;;;;;;0.77;0.57;;;6.70;99.90;;;;;;4976514;28;20505;-92
2023/01/09 05:47:46;;;;;;;4.00;0.20;;;6.80;99.90;;;;;;5014611;28;20276;-92
2023/01/09 05:50:13;;;;;;;0.70;0.23;;;6.80;99.90;;;;;;5014177;28;20640;-93
2023/01/09 05:52:39;;;;;;;2.10;0.50;;;6.80;99.90;;;;;;5014522;28;20439;-93
2023/01/09 05:55:06;;;;;;;1.10;0.33;;;6.80;99.90;;;;;;5014210;28;20514;-93
2023/01/09 05:57:34;;;;;;;1.00;0.30;;;6.80;99.90;;;;;;4997973;28;20196;-91
2023/01/09 05:59:59;;;;;;;1.70;0.33;;;6.90;99.90;;;;;;5014309;28;20438;-90
2023/01/09 06:02:25;;;;;;;1.67;0.30;;;6.90;99.90;;;;;;5015427;28;20494;-92
2023/01/09 06:04:51;;;;;;;1.90;0.30;;;6.90;99.90;;;;;;5013325;28;20416;-93
2023/01/09 06:07:16;;;;;;;0.90;0.20;;;6.90;99.90;;;;;;5013834;28;20275;-91
2023/01/09 06:09:42;;;;;;;1.20;0.43;;;6.90;99.90;;;;;;5014104;28;20177;-92
2023/01/09 06:12:07;;;;;;;0.57;0.37;;;6.90;99.90;;;;;;5014139;28;20653;-89
2023/01/09 06:14:33;;;;;;;0.83;0.20;;;6.90;99.90;;;;;;5014989;28;20213;-89
2023/01/09 06:16:58;;;;;;;1.10;0.30;;;6.90;99.90;;;;;;5014643;28;20233;-89
2023/01/09 06:19:24;;;;;;;5.77;1.30;;;6.90;99.90;;;;;;5013976;28;20188;-91
2023/01/09 06:21:52;;;;;;;0.80;0.30;;;6.90;99.90;;;;;;5014751;28;20228;-91
2023/01/09 06:24:21;;;;;;;1.10;0.23;;;6.90;99.90;;;;;;5013920;28;20429;-91
2023/01/09 06:26:46;;;;;;;2.10;0.40;;;6.90;99.90;;;;;;4997286;28;20450;-90
2023/01/09 06:29:12;;;;;;;1.90;0.40;;;6.80;99.90;;;;;;5013754;28;20436;-91
2023/01/09 06:31:37;;;;;;;1.00;0.20;;;6.80;99.90;;;;;;5014605;28;20172;-87
2023/01/09 06:34:03;;;;;;;0.70;0.50;;;6.80;99.90;;;;;;5024812;28;20239;-87
2023/01/09 06:36:28;;;;;;;1.80;0.70;;;6.80;99.90;;;;;;5015559;28;20181;-89
2023/01/09 06:38:53;;;;;;;1.70;0.20;;;6.80;99.90;;;;;;5013331;28;20208;-88
2023/01/09 06:41:19;;;;;;;1.07;0.23;;;6.80;99.90;;;;;;5013392;28;20182;-89
2023/01/09 06:43:44;;;;;;;2.20;0.30;;;6.80;99.90;;;;;;5014367;28;20638;-90
2023/01/09 06:46:10;;;;;;;0.60;0.30;;;6.80;99.90;;;;;;5013169;28;20180;-89
2023/01/09 06:48:35;;;;;;;1.17;0.33;;;6.80;99.90;;;;;;5014434;28;20266;-89
2023/01/09 06:51:04;;;;;;;1.30;0.37;;;6.80;99.90;;;;;;5014041;28;20172;-95
2023/01/09 06:53:33;;;;;;;0.80;0.40;;;6.80;99.90;;;;;;5013573;28;20567;-88
2023/01/09 06:56:01;;;;;;;1.70;0.37;;;6.80;99.90;;;;;;5027986;28;20427;-86
2023/01/09 06:58:29;;;;;;;0.60;0.30;;;6.80;99.90;;;;;;5000327;28;20453;-85
2023/01/09 07:00:55;;;;;;;1.10;0.20;;;6.80;99.90;;;;;;4994215;28;20424;-93
2023/01/09 07:03:21;;;;;;;0.80;0.30;;;6.80;99.90;;;;;;4966338;28;20429;-92
2023/01/09 07:05:47;;;;;;;4.40;0.90;;;6.80;99.90;;;;;;5013898;28;20229;-91
2023/01/09 07:08:13;;;;;;;0.90;0.30;;;6.70;99.90;;;;;;5013904;28;20423;-87
2023/01/09 07:10:40;;;;;;;0.50;0.40;;;6.70;99.90;;;;;;5013877;28;20422;-90
2023/01/09 07:13:06;;;;;;;0.80;0.43;;;6.70;99.90;;;;;;5013891;28;20414;-92
2023/01/09 07:15:31;;;;;;;2.77;0.30;;;6.60;99.90;;;;;;5015054;28;20463;-91
2023/01/09 07:17:57;;;;;;;0.77;0.30;;;6.60;99.90;;;;;;5019389;28;20169;-91
2023/01/09 07:20:23;;;;;;;1.73;0.30;;;6.60;99.90;;;;;;5020568;28;20175;-91
2023/01/09 07:22:48;;;;;;;1.03;0.20;;;6.50;99.90;;;;;;5019366;28;20420;-92
2023/01/09 07:25:14;;;;;;;0.60;0.30;;;6.50;99.90;;;;;;5020674;28;20176;-90
2023/01/09 07:27:41;;;;;;;0.60;0.27;;;6.40;99.90;;;;;;5020633;28;20248;-86
2023/01/09 07:30:07;;;;;;;0.50;0.30;;;6.40;99.90;;;;;;5020346;28;20200;-91
2023/01/09 07:32:33;;;;;;;0.60;0.30;;;6.40;99.90;;;;;;5020747;28;20831;-92
2023/01/09 07:35:01;;;;;;;0.63;0.27;;;6.30;99.90;;;;;;5020652;28;20511;-92
2023/01/09 07:37:29;;;;;;;1.33;0.40;;;6.30;99.90;;;;;;5020949;28;20168;-93
2023/01/09 07:39:55;;;;;;;1.67;0.27;;;6.30;99.90;;;;;;5022225;28;20416;-90
2023/01/09 07:42:20;;;;;;;1.70;0.70;;;6.30;99.90;;;;;;5021356;28;20400;-92
2023/01/09 07:44:46;;;;;;;0.90;0.23;;;6.20;99.90;;;;;;5020476;28;20186;-93
2023/01/09 07:47:11;;;;;;;2.80;0.90;;;6.20;99.90;;;;;;5020840;28;20199;-93
2023/01/09 07:49:37;;;;;;;1.57;0.93;;;6.20;99.90;;;;;;5019931;28;20235;-92
2023/01/09 07:52:03;;;;;;;1.83;0.40;;;6.20;99.90;;;;;;5020578;28;20226;-92
2023/01/09 07:54:29;;;;;;;1.73;0.67;;;6.20;99.90;;;;;;5019060;28;20263;-85
2023/01/09 07:56:56;;;;;;;1.50;0.70;;;6.20;99.90;;;;;;5020464;28;20440;-91
2023/01/09 07:59:22;;;;;;;1.63;0.90;;;6.20;99.90;;;;;;5018850;28;20264;-87
2023/01/09 08:01:47;;;;;;;1.50;0.73;;;6.20;99.90;;;;;;5033331;28;20427;-87
2023/01/09 08:04:13;;;;;;;3.63;1.27;;;6.30;99.90;;;;;;5023771;28;20258;-87
2023/01/09 08:06:38;;;;;;;1.63;0.70;;;6.30;99.90;;;;;;5020383;28;20165;-90
2023/01/09 08:09:04;;;;;;;3.43;1.00;;;6.30;99.90;;;;;;5019436;28;20181;-88
2023/01/09 08:11:31;;;;;;;1.87;1.30;;;6.30;99.90;;;;;;5019471;28;20259;-85
2023/01/09 08:13:56;;;;;;;1.60;1.17;;;6.40;99.90;;;;;;5019363;28;20209;-90
2023/01/09 08:16:22;;;;;;;2.67;1.40;;;6.40;99.90;;;;;;5018472;28;20959;-87
2023/01/09 08:18:47;;;;;;;2.30;1.00;;;6.40;99.90;;;;;;5023539;28;20253;-93
2023/01/09 08:21:13;;;;;;;2.57;1.37;;;6.50;99.90;;;;;;5029386;28;20239;-94
2023/01/09 08:23:39;;;;;;;2.60;1.10;;;6.50;99.90;;;;;;5028600;28;20177;-91
2023/01/09 08:26:05;;;;;;;3.40;1.67;;;6.50;99.90;;;;;;5029584;28;20266;-96
2023/01/09 08:28:31;;;;;;;5.20;2.90;;;6.50;99.90;;;;;;5023157;28;20481;-90
2023/01/09 08:30:56;;;;;;;2.97;2.07;;;6.50;99.90;;;;;;5024056;28;20179;-94
2023/01/09 08:33:21;;;;;;;3.93;1.80;;;6.50;99.90;;;;;;5024912;28;20441;-95
2023/01/09 08:35:47;;;;;;;3.20;1.70;;;6.50;99.90;;;;;;5023648;28;20185;-94
2023/01/09 08:38:13;;;;;;;3.63;2.23;;;6.50;99.90;;;;;;5027255;28;20669;-94
2023/01/09 08:40:39;;;;;;;3.73;2.10;;;6.50;99.90;;;;;;5028472;28;20176;-93
2023/01/09 08:48:33;;;;;;;4.77;2.60;;;6.50;99.90;;;;;;5029909;28;20418;-92
2023/01/09 08:50:59;;;;;;;6.00;2.80;;;6.70;99.90;;;;;;5030976;28;20478;-95
2023/01/09 08:53:27;;;;;;;8.00;3.40;;;6.60;99.90;;;;;;5031183;28;20273;-94
2023/01/09 08:55:52;;;;;;;8.50;2.90;;;6.50;99.90;;;;;;5030924;28;20184;-89
2023/01/09 08:58:18;;;;;;;4.27;3.03;;;6.50;99.90;;;;;;5030273;28;20429;-92
2023/01/09 09:00:43;;;;;;;5.63;2.83;;;6.50;99.90;;;;;;5029505;28;20187;-92
2023/01/09 09:03:10;;;;;;;3.53;2.70;;;7.00;99.90;;;;;;5029130;28;20191;-96
2023/01/09 09:05:37;;;;;;;6.33;3.60;;;7.70;99.90;;;;;;5029062;28;20215;-94
2023/01/09 09:08:03;;;;;;;5.87;2.40;;;8.40;99.90;;;;;;5029174;28;20415;-90
2023/01/09 09:10:30;;;;;;;5.10;2.43;;;8.70;99.90;;;;;;5013567;28;20428;-89
2023/01/09 09:12:57;;;;;;;6.00;2.30;;;8.50;99.90;;;;;;5020486;28;20476;-89
2023/01/09 09:15:24;;;;;;;4.10;2.70;;;8.50;99.90;;;;;;5031781;28;20482;-88
2023/01/09 09:17:53;;;;;;;3.20;1.90;;;9.00;99.90;;;;;;5031236;28;20472;-88
2023/01/09 09:20:19;;;;;;;3.57;2.20;;;8.90;99.90;;;;;;5032238;28;21000;-95
2023/01/09 09:22:46;;;;;;;3.63;1.17;;;8.80;99.90;;;;;;5033698;28;20432;-89
2023/01/09 09:25:12;;;;;;;3.50;2.20;;;8.70;99.90;;;;;;5027784;28;20493;-94
2023/01/09 09:27:37;;;;;;;3.80;1.90;;;9.00;99.90;;;;;;5031953;28;20411;-90
2023/01/09 09:30:03;;;;;;;3.17;1.63;;;9.50;99.90;;;;;;5032814;28;20204;-88
2023/01/09 09:32:30;;;;;;;3.70;1.83;;;8.90;99.90;;;;;;5030208;28;20250;-95
2023/01/09 09:34:55;;;;;;;4.60;2.87;;;8.40;99.90;;;;;;5030696;28;21040;-91
2023/01/09 09:37:21;;;;;;;4.30;1.50;;;8.60;99.90;;;;;;5033515;28;20465;-92
2023/01/09 09:39:51;;;;;;;6.10;1.57;;;9.10;99.90;;;;;;5020304;28;20266;-86
2023/01/09 09:45:52;;;;;;;6.07;1.80;;;8.00;99.90;;;;;;5027889;28;20788;-90
2023/01/09 09:48:33;;;;;;;2.13;1.30;;;7.80;99.90;;;;;;5022360;28;20424;-86
2023/01/09 09:51:12;;;;;;;3.90;2.00;;;7.70;99.90;;;;;;5022910;28;20420;-89
2023/01/09 09:53:48;;;;;;;5.50;1.70;;;7.60;99.90;;;;;;5021575;28;20467;-85
2023/01/09 09:56:17;;;;;;;3.20;1.90;;;7.80;99.90;;;;;;5024396;28;20406;-89
2023/01/09 09:58:50;;;;;;;4.77;2.47;;;7.90;99.90;;;;;;5026804;28;20423;-89
2023/01/09 10:01:25;;;;;;;3.97;1.43;;;7.90;99.90;;;;;;5023069;28;20805;-92
2023/01/09 10:04:00;;;;;;;4.90;2.20;;;8.10;99.90;;;;;;5031843;28;20431;-92
2023/01/09 10:06:29;;;;;;;4.83;2.77;;;7.90;99.90;;;;;;5025879;28;20407;-89
2023/01/09 10:09:01;;;;;;;3.87;1.57;;;7.70;99.90;;;;;;5024734;28;20414;-92
2023/01/09 10:11:38;;;;;;;4.40;2.00;;;7.90;99.90;;;;;;5029829;28;20430;-88
2023/01/09 10:14:03;;;;;;;2.73;1.80;;;7.80;99.90;;;;;;5029877;28;20484;-95
2023/01/09 10:16:46;;;;;;;3.47;1.60;;;7.80;99.90;;;;;;5032188;28;20471;-94
2023/01/09 10:19:29;;;;;;;3.10;2.00;;;7.80;99.90;;;;;;5015962;28;20193;-93
2023/01/09 10:22:26;;;;;;;5.07;1.90;;;8.00;99.90;;;;;;5016634;28;20494;-95
2023/01/09 10:24:56;;;;;;;5.53;2.37;;;8.10;99.90;;;;;;5018302;28;20507;-92
2023/01/09 10:27:28;;;;;;;5.73;2.40;;;8.00;99.90;;;;;;5015391;28;20501;-93
2023/01/09 10:30:11;;;;;;;4.37;1.90;;;8.00;99.90;;;;;;5015783;28;20443;-93
2023/01/09 10:32:53;;;;;;;4.17;1.50;;;8.00;99.90;;;;;;5018691;28;20417;-94
2023/01/09 10:35:54;;;;;;;4.90;1.70;;;7.80;99.90;;;;;;5020283;28;20579;-95
2023/01/09 10:38:27;;;;;;;4.10;1.90;;;7.60;99.90;;;;;;5000957;28;20425;-93
2023/01/09 10:41:05;;;;;;;6.40;1.57;;;7.50;99.90;;;;;;5004250;28;20438;-95
2023/01/09 10:43:45;;;;;;;6.63;2.73;;;7.50;99.90;;;;;;5017244;28;20428;-90
2023/01/09 10:46:18;;;;;;;3.07;1.00;;;7.90;99.90;;;;;;5015964;28;20431;-86
2023/01/09 10:48:50;;;;;;;4.87;1.70;;;8.10;99.90;;;;;;5015525;28;20414;-92
2023/01/09 10:51:35;;;;;;;7.90;2.60;;;8.30;99.90;;;;;;5012823;28;20533;-91
2023/01/09 10:54:02;;;;;;;3.73;1.40;;;8.80;99.90;;;;;;5014982;28;20473;-90
2023/01/09 10:56:32;;;;;;;5.67;1.97;;;8.70;99.90;;;;;;5014297;28;20431;-89
2023/01/09 10:59:01;;;;;;;3.43;0.90;;;8.40;99.90;;;;;;5025717;28;20419;-89
2023/01/09 11:01:30;;;;;;;8.63;2.40;;;8.00;99.90;;;;;;5019639;28;20410;-89
2023/01/09 11:03:58;;;;;;;3.30;1.50;;;8.00;99.90;;;;;;5013046;28;20421;-92
2023/01/09 11:06:49;;;;;;;3.17;2.17;;;8.00;99.90;;;;;;5012925;28;20946;-86
2023/01/09 11:09:15;;;;;;;4.03;2.00;;;9.70;99.90;;;;;;5001581;28;20449;-91
2023/01/09 11:11:41;;;;;;;4.93;1.53;;;10.60;1.00;;;;;;5013061;28;20424;-91
2023/01/09 11:14:27;;;;;;;2.77;1.50;;;10.60;99.90;;;;;;5012144;28;20466;-93
2023/01/09 11:17:00;;;;;;;7.33;1.87;;;10.20;1.00;;;;;;5024664;28;20790;-92
2023/01/09 11:19:27;;;;;;;6.50;1.80;;;10.40;99.90;;;;;;5016193;28;20413;-94
2023/01/09 11:22:26;;;;;;;5.50;1.10;;;11.30;1.00;;;;;;5032123;28;20414;-85
2023/01/09 11:25:05;;;;;;;3.67;1.07;;;10.90;99.90;;;;;;5028221;28;20418;-95
2023/01/09 11:27:30;;;;;;;14.20;1.90;;;9.90;1.00;;;;;;5028285;28;20438;-94
2023/01/09 11:30:25;;;;;;;7.10;2.00;;;9.60;1.00;;;;;;5028661;28;20418;-94
2023/01/09 11:32:52;;;;;;;2.30;0.90;;;9.40;1.00;;;;;;5025224;28;20948;-90
2023/01/09 11:35:27;;;;;;;2.50;0.97;;;9.00;57.00;;;;;;5018654;28;20795;-90
2023/01/09 11:38:16;;;;;;;4.53;1.73;;;8.90;99.90;;;;;;5018727;28;20954;-84
2023/01/09 11:40:48;;;;;;;6.00;1.63;;;8.80;99.90;;;;;;4987948;28;21237;-85
2023/01/09 11:43:24;;;;;;;3.60;0.73;;;8.80;99.90;;;;;;5011995;28;20406;-88
2023/01/09 11:45:55;;;;;;;6.80;1.70;;;9.00;99.90;;;;;;5017912;28;20425;-89
2023/01/09 11:48:39;;;;;;;3.97;1.20;;;9.80;1.00;;;;;;5020029;28;20425;-90
2023/01/09 11:51:34;;;;;;;2.03;1.10;;;9.60;26.20;;;;;;5016543;28;20410;-84
2023/01/09 11:54:26;;;;;;;3.77;1.27;;;11.80;1.00;;;;;;5020448;28;20462;-86
2023/01/09 11:56:52;;;;;;;1.70;1.20;;;11.20;1.00;;;;;;5013101;28;20734;-84
2023/01/09 11:59:20;;;;;;;3.93;1.20;;;10.20;99.90;;;;;;5012916;28;20420;-85
2023/01/09 12:02:14;;;;;;;4.50;0.80;;;10.70;99.90;;;;;;5012981;28;20398;-85
2023/01/09 12:04:46;;;;;;;4.00;0.83;;;9.80;99.90;;;;;;5016836;28;20762;-83
2023/01/09 12:07:29;;;;;;;3.00;1.03;;;9.30;1.00;;;;;;5015116;28;20421;-83
2023/01/09 12:10:09;;;;;;;2.30;0.80;;;9.10;74.30;;;;;;5016430;28;20423;-81
2023/01/09 12:12:52;;;;;;;4.83;1.03;;;9.00;99.90;;;;;;5016430;28;20420;-83
2023/01/09 12:15:59;;;;;;;3.60;1.90;;;8.90;99.90;;;;;;5015621;28;20491;-81
2023/01/09 12:18:33;;;;;;;5.03;1.20;;;8.70;99.90;;;;;;5016110;28;20607;-81
2023/01/09 12:21:09;;;;;;;3.13;1.10;;;8.80;99.90;;;;;;5016173;28;20497;-81
2023/01/09 12:23:50;;;;;;;3.57;1.77;;;8.70;99.90;;;;;;5015989;28;20907;-81
2023/01/09 12:26:26;;;;;;;3.30;1.70;;;8.70;99.90;;;;;;5016029;28;20492;-81
2023/01/09 12:29:17;;;;;;;2.40;0.93;;;8.60;99.90;;;;;;5015992;28;20423;-84
2023/01/09 12:31:59;;;;;;;3.03;1.43;;;8.40;99.90;;;;;;5016032;28;20398;-82
2023/01/09 12:34:30;;;;;;;3.40;2.13;;;8.30;99.90;;;;;;5015853;28;20470;-82
2023/01/09 12:37:19;;;;;;;3.53;1.90;;;8.20;99.90;;;;;;5015821;28;20746;-82
2023/01/09 12:40:21;;;;;;;3.03;1.23;;;8.20;99.90;;;;;;5015696;28;20746;-81
2023/01/09 12:43:10;;;;;;;5.90;1.50;;;8.30;99.90;;;;;;4977471;28;20444;-80
2023/01/09 12:45:43;;;;;;;4.57;1.63;;;8.30;99.90;;;;;;5015299;28;20408;-81
2023/01/09 12:48:30;;;;;;;7.70;1.97;;;8.40;99.90;;;;;;5015684;28;20421;-82
2023/01/09 12:51:23;;;;;;;3.70;1.90;;;8.30;99.90;;;;;;5014283;28;20406;-81
2023/01/09 12:54:12;;;;;;;12.23;2.67;;;8.40;99.90;;;;;;5015495;28;20469;-81
2023/01/09 12:56:42;;;;;;;3.40;1.33;;;8.30;99.90;;;;;;5005246;28;20415;-81
2023/01/09 12:59:29;;;;;;;3.23;1.47;;;8.30;99.90;;;;;;5015147;28;20989;-87
2023/01/09 13:02:07;;;;;;;6.37;1.83;;;8.20;99.90;;;;;;5014448;28;20411;-87
2023/01/09 13:04:48;;;;;;;6.93;2.00;;;8.30;99.90;;;;;;5014241;28;20934;-81
2023/01/09 13:07:37;;;;;;;4.73;2.10;;;8.30;99.90;;;;;;5015325;28;20415;-81
2023/01/09 13:10:29;;;;;;;2.43;1.30;;;8.40;99.90;;;;;;5015291;28;20421;-81
2023/01/09 13:12:57;;;;;;;5.10;1.70;;;8.50;99.90;;;;;;5015159;28;20425;-81
2023/01/09 13:15:38;;;;;;;5.40;2.00;;;8.60;99.90;;;;;;5014212;28;21076;-82
2023/01/09 13:18:08;;;;;;;3.53;1.93;;;8.60;99.90;;;;;;5013801;28;20497;-83
2023/01/09 13:20:36;;;;;;;3.47;1.47;;;8.50;99.90;;;;;;5015086;28;20403;-81
2023/01/09 13:23:06;;;;;;;4.83;1.60;;;8.60;99.90;;;;;;5013840;28;20420;-81
2023/01/09 13:25:40;;;;;;;4.50;2.00;;;8.50;99.90;;;;;;5013900;28;20451;-81
2023/01/09 13:28:20;;;;;;;4.50;1.97;;;8.50;99.90;;;;;;5013838;28;20755;-80
2023/01/09 13:30:54;;;;;;;2.50;1.30;;;8.30;99.90;;;;;;5013264;28;20499;-81